Airport View

Enter AWOS ICAO identifier for current METAR.

ex. KFNL

KDNN 261155Z AUTO 00000KT 10SM CLR 21/20 A3021 RMK AO2

26 Jun 2019 12:20

Frequency: 127.65

Phone: 706-278-7010

Other Area AWOS: KCZL - K49A - KFGU - K9A5

TAF KCHA 261127Z 2612/2712 VRB04KT P6SM FEW045 BKN250 FM270000 00000KT P6SM BKN250